Time;durP1;ratioP1;P1;durP2;ratioP2;P2;SDS_P1;SDS_P2;PMS_P1;PMS_P2;Temp;Humidity;BMP_temperature;BMP_pressure;BME280_temperature;BME280_humidity;BME280_pressure;Samples;Min_cycle;Max_cycle;Signal;HPM_P1;HPM_P2
2022/11/16 09:06:34;;;;;;;;;;;;;;;;;;4787424;24;19933;-77
2022/11/16 09:09:01;;;;;;;;;;;;;;;;;;4781135;29;20124;-75
2022/11/16 09:11:29;;;;;;;;;;;;;;;;;;4765934;30;19926;-73
2022/11/16 09:13:58;;;;;;;;;;;;;;;;;;4781700;29;20750;-76
2022/11/16 09:16:28;;;;;;;;;;;;;;;;;;4764934;29;20310;-75
2022/11/16 09:18:55;;;;;;;;;;;;;;;;;;4780656;29;19929;-77
2022/11/16 09:21:27;;;;;;;;;;;;;;;;;;4782186;30;19929;-75
2022/11/16 09:23:56;;;;;;;;;;;;;;;;;;4769069;29;19930;-74
2022/11/16 09:26:25;;;;;;;;;;;;;;;;;;4782757;29;19929;-74
2022/11/16 09:28:58;;;;;;;;;;;;;;;;;;4782927;29;20367;-74
2022/11/16 09:31:26;;;;;;;;;;;;;;;;;;4783568;30;19925;-74
2022/11/16 09:34:17;;;;;;;;;;;;;;;;;;4781077;29;20358;-74
2022/11/16 09:36:45;;;;;;;;;;;;;;;;;;4781048;29;19926;-74
2022/11/16 09:39:17;;;;;;;;;;;;;;;;;;4778886;29;19934;-74
2022/11/16 09:42:31;;;;;;;;;;;;;;;;;;4778773;29;20410;-74
2022/11/16 09:45:07;;;;;;;;;;;;;;;;;;4777313;29;19965;-74
2022/11/16 09:47:42;;;;;;;;;;;;;;;;;;4778272;29;20395;-74
2022/11/16 09:50:21;;;;;;;;;;;;;;;;;;4781022;29;19982;-74
2022/11/16 09:53:17;;;;;;;;;;;;;;;;;;4752168;29;19982;-74
2022/11/16 09:55:50;;;;;;;;;;;;;;;;;;4776291;29;20212;-74
2022/11/16 09:58:22;;;;;;;;;;;;;;;;;;4777502;29;20375;-74
2022/11/16 10:00:54;;;;;;;;;;;;;;;;;;4762777;30;19982;-74
2022/11/16 10:03:37;;;;;;;;;;;;;;;;;;4778988;29;19926;-74
2022/11/16 10:06:04;;;;;;;;;;;;;;;;;;4781834;29;20020;-74
2022/11/16 10:08:56;;;;;;;;;;;;;;;;;;4764450;30;20298;-74
2022/11/16 10:11:44;;;;;;;;;;;;;;;;;;4779086;29;19929;-74
2022/11/16 10:14:25;;;;;;;;;;;;;;;;;;4781631;29;19929;-74
2022/11/16 10:17:22;;;;;;;;;;;;;;;;;;4776812;30;19937;-74
2022/11/16 10:19:49;;;;;;;;;;;;;;;;;;4764615;30;19925;-74
2022/11/16 10:22:33;;;;;;;;;;;;;;;;;;4780994;30;19926;-74
2022/11/16 10:25:30;;;;;;;;;;;;;;;;;;4780678;29;20012;-74
2022/11/16 10:28:03;;;;;;;;;;;;;;;;;;4762083;30;19930;-74
2022/11/16 10:30:37;;;;;;;;;;;;;;;;;;4775778;29;20272;-74
2022/11/16 10:33:09;;;;;;;;;;;;;;;;;;4764978;30;20410;-75
2022/11/16 10:35:40;;;;;;;;;;;;;;;;;;4774603;29;19932;-75
2022/11/16 10:38:16;;;;;;;;;;;;;;;;;;4776452;29;19965;-74
2022/11/16 10:40:46;;;;;;;;;;;;;;;;;;4778345;29;19929;-74
2022/11/16 10:46:22;;;;;;;;;;;;;;;;;;4776134;29;21796;-74
2022/11/16 10:49:12;;;;;;;;;;;;;;;;;;4774971;29;20016;-74
2022/11/16 10:51:39;;;;;;;;;;;;;;;;;;4774784;29;19941;-74
2022/11/16 10:54:14;;;;;;;;;;;;;;;;;;4780207;29;20302;-74
2022/11/16 10:56:44;;;;;;;;;;;;;;;;;;4776426;29;20398;-74
2022/11/16 10:59:13;;;;;;;;;;;;;;;;;;4781096;29;19925;-74
2022/11/16 11:01:43;;;;;;;;;;;;;;;;;;4778489;29;20302;-74
2022/11/16 11:04:23;;;;;;;;;;;;;;;;;;4785110;29;20402;-74
2022/11/16 11:06:55;;;;;;;;;;;;;;;;;;4779237;29;19930;-74
2022/11/16 11:09:27;;;;;;;;;;;;;;;;;;4767217;29;19936;-74
2022/11/16 11:15:00;;;;;;;;;;;;;;;;;;4778685;29;19933;-74
2022/11/16 11:17:28;;;;;;;;;;;;;;;;;;4780178;29;19931;-74
2022/11/16 11:20:00;;;;;;;;;;;;;;;;;;4782593;29;20313;-75
2022/11/16 11:22:28;;;;;;;;;;;;;;;;;;4781401;30;19925;-75
2022/11/16 11:24:55;;;;;;;;;;;;;;;;;;4779993;29;19936;-75
2022/11/16 11:27:31;;;;;;;;;;;;;;;;;;4782404;30;20359;-75
2022/11/16 11:29:58;;;;;;;;;;;;;;;;;;4784694;29;20449;-75
2022/11/16 11:32:30;;;;;;;;;;;;;;;;;;4766871;30;19926;-75
2022/11/16 11:34:59;;;;;;;;;;;;;;;;;;4782554;29;19932;-75
2022/11/16 11:37:31;;;;;;;;;;;;;;;;;;4782697;30;19937;-75
2022/11/16 11:40:17;;;;;;;;;;;;;;;;;;4780786;29;19933;-76
2022/11/16 11:42:51;;;;;;;;;;;;;;;;;;4783743;30;20016;-75
2022/11/16 11:45:26;;;;;;;;;;;;;;;;;;4780843;29;19930;-75
2022/11/16 11:48:00;;;;;;;;;;;;;;;;;;4781290;30;19929;-75
2022/11/16 11:50:35;;;;;;;;;;;;;;;;;;4779075;29;19925;-75
2022/11/16 11:53:12;;;;;;;;;;;;;;;;;;4778149;29;20448;-75
2022/11/16 11:55:39;;;;;;;;;;;;;;;;;;4780040;29;19930;-75
2022/11/16 11:58:16;;;;;;;;;;;;;;;;;;4779904;30;19925;-75
2022/11/16 12:01:01;;;;;;;;;;;;;;;;;;4782753;29;19997;-75
2022/11/16 12:03:39;;;;;;;;;;;;;;;;;;4781785;29;19929;-75
2022/11/16 12:06:33;;;;;;;;;;;;;;;;;;4783123;29;20272;-75
2022/11/16 12:09:15;;;;;;;;;;;;;;;;;;4782475;29;19936;-74
2022/11/16 12:12:13;;;;;;;;;;;;;;;;;;4783151;29;19926;-75
2022/11/16 12:14:58;;;;;;;;;;;;;;;;;;4779701;29;19928;-75
2022/11/16 12:17:34;;;;;;;;;;;;;;;;;;4783056;29;19932;-75
2022/11/16 12:20:51;;;;;;;;;;;;;;;;;;4768746;30;20012;-75
2022/11/16 12:23:43;;;;;;;;;;;;;;;;;;4784078;29;20015;-75
2022/11/16 12:26:11;;;;;;;;;;;;;;;;;;4783416;29;20337;-75
2022/11/16 12:28:47;;;;;;;;;;;;;;;;;;4764402;30;19936;-76
2022/11/16 12:31:36;;;;;;;;;;;;;;;;;;4779115;29;19926;-76
2022/11/16 12:34:12;;;;;;;;;;;;;;;;;;4765399;30;19936;-75
2022/11/16 12:36:46;;;;;;;;;;;;;;;;;;4764193;30;19936;-76
2022/11/16 12:39:26;;;;;;;;;;;;;;;;;;4781662;29;19929;-75
2022/11/16 12:41:56;;;;;;;;;;;;;;;;;;4781458;29;20283;-74
2022/11/16 12:44:57;;;;;;;;;;;;;;;;;;4764969;30;19930;-75
2022/11/16 12:47:24;;;;;;;;;;;;;;;;;;4780590;29;19930;-75
2022/11/16 12:50:00;;;;;;;;;;;;;;;;;;4776122;29;19929;-74
2022/11/16 12:52:42;;;;;;;;;;;;;;;;;;4781763;29;20360;-75
2022/11/16 12:55:36;;;;;;;;;;;;;;;;;;4780507;29;19980;-75
2022/11/16 12:58:13;;;;;;;;;;;;;;;;;;4781570;30;19929;-75
2022/11/16 13:01:03;;;;;;;;;;;;;;;;;;4779884;29;20011;-76
2022/11/16 13:03:46;;;;;;;;;;;;;;;;;;4777824;29;19929;-75
2022/11/16 13:06:41;;;;;;;;;;;;;;;;;;4781853;29;20017;-76
2022/11/16 13:09:25;;;;;;;;;;;;;;;;;;4783633;30;19946;-75
2022/11/16 13:11:57;;;;;;;;;;;;;;;;;;4767960;30;19929;-75
2022/11/16 13:14:27;;;;;;;;;;;;;;;;;;4782012;30;20395;-76
2022/11/16 13:16:56;;;;;;;;;;;;;;;;;;4781210;29;20058;-76
2022/11/16 13:19:24;;;;;;;;;;;;;;;;;;4780277;30;19929;-77
2022/11/16 13:21:55;;;;;;;;;;;;;;;;;;4764575;30;20386;-76
2022/11/16 13:25:03;;;;;;;;;;;;;;;;;;4778517;29;20023;-75
2022/11/16 13:27:30;;;;;;;;;;;;;;;;;;4779626;29;19988;-76
2022/11/16 13:30:08;;;;;;;;;;;;;;;;;;4779002;29;19925;-75
2022/11/16 13:32:56;;;;;;;;;;;;;;;;;;4778285;29;20391;-75
2022/11/16 13:35:24;;;;;;;;;;;;;;;;;;4782528;30;19969;-75
2022/11/16 13:37:51;;;;;;;;;;;;;;;;;;4777248;29;20456;-75
2022/11/16 13:40:30;;;;;;;;;;;;;;;;;;4783423;30;19972;-75
2022/11/16 13:43:09;;;;;;;;;;;;;;;;;;4780014;29;19948;-75
2022/11/16 13:46:02;;;;;;;;;;;;;;;;;;4782495;29;20282;-75
2022/11/16 13:48:35;;;;;;;;;;;;;;;;;;4782284;30;19929;-75
2022/11/16 13:51:05;;;;;;;;;;;;;;;;;;4779928;29;19986;-75
2022/11/16 13:53:37;;;;;;;;;;;;;;;;;;4779112;29;19953;-75
2022/11/16 13:56:25;;;;;;;;;;;;;;;;;;4766041;30;19930;-75
2022/11/16 13:58:56;;;;;;;;;;;;;;;;;;4780521;30;19930;-75
2022/11/16 14:01:25;;;;;;;;;;;;;;;;;;4780056;29;19987;-75
2022/11/16 14:04:34;;;;;;;;;;;;;;;;;;4778376;29;19925;-75
2022/11/16 14:07:01;;;;;;;;;;;;;;;;;;4779767;29;19925;-75
2022/11/16 14:09:42;;;;;;;;;;;;;;;;;;4761167;29;20382;-77
2022/11/16 14:12:39;;;;;;;;;;;;;;;;;;4778635;29;19925;-75
2022/11/16 14:15:15;;;;;;;;;;;;;;;;;;4779331;30;20020;-77
2022/11/16 14:18:02;;;;;;;;;;;;;;;;;;4778964;29;19926;-75
2022/11/16 14:20:40;;;;;;;;;;;;;;;;;;4779151;30;19948;-75
2022/11/16 14:23:19;;;;;;;;;;;;;;;;;;4778889;29;19929;-75
2022/11/16 14:25:52;;;;;;;;;;;;;;;;;;4779642;29;19925;-73
2022/11/16 14:28:46;;;;;;;;;;;;;;;;;;4779872;29;19929;-74
2022/11/16 14:31:23;;;;;;;;;;;;;;;;;;4711241;30;19938;-73
2022/11/16 14:33:53;;;;;;;;;;;;;;;;;;4709717;30;19931;-73
2022/11/16 14:36:40;;;;;;;;;;;;;;;;;;4715420;30;19949;-73
2022/11/16 14:39:23;;;;;;;;;;;;;;;;;;4714495;30;19966;-73
2022/11/16 14:42:15;;;;;;;;;;;;;;;;;;4715758;30;19966;-73
2022/11/16 14:44:42;;;;;;;;;;;;;;;;;;4714320;30;19934;-75
2022/11/16 14:47:34;;;;;;;;;;;;;;;;;;4714646;30;19982;-74
2022/11/16 14:50:23;;;;;;;;;;;;;;;;;;4714412;30;19934;-74
2022/11/16 14:52:53;;;;;;;;;;;;;;;;;;4712085;30;20403;-74
2022/11/16 14:55:23;;;;;;;;;;;;;;;;;;4712991;30;19930;-73
2022/11/16 14:58:07;;;;;;;;;;;;;;;;;;4714787;30;19935;-74
2022/11/16 15:01:01;;;;;;;;;;;;;;;;;;4713610;30;19938;-73
2022/11/16 15:03:37;;;;;;;;;;;;;;;;;;4710910;30;19970;-73
2022/11/16 15:06:06;;;;;;;;;;;;;;;;;;4711769;30;19931;-72
2022/11/16 15:09:01;;;;;;;;;;;;;;;;;;4774223;30;20366;-73
2022/11/16 15:14:31;;;;;;;;;;;;;;;;;;4775929;29;19965;-74
2022/11/16 15:16:59;;;;;;;;;;;;;;;;;;4765961;29;19929;-74
2022/11/16 15:19:56;;;;;;;;;;;;;;;;;;4768927;29;19960;-73
2022/11/16 15:22:25;;;;;;;;;;;;;;;;;;4777663;29;19933;-73
2022/11/16 15:24:55;;;;;;;;;;;;;;;;;;4782730;29;20031;-73
2022/11/16 15:27:39;;;;;;;;;;;;;;;;;;4782965;29;19932;-73
2022/11/16 15:30:32;;;;;;;;;;;;;;;;;;4782023;29;19922;-74
2022/11/16 15:33:36;;;;;;;;;;;;;;;;;;4779393;29;19922;-73
2022/11/16 15:36:22;;;;;;;;;;;;;;;;;;4776044;29;20013;-73
2022/11/16 15:38:54;;;;;;;;;;;;;;;;;;4764949;30;19936;-73
2022/11/16 15:41:23;;;;;;;;;;;;;;;;;;4783829;30;19933;-73
2022/11/16 15:43:57;;;;;;;;;;;;;;;;;;4768536;30;20032;-74
2022/11/16 15:46:44;;;;;;;;;;;;;;;;;;4778593;29;19926;-73
2022/11/16 15:49:37;;;;;;;;;;;;;;;;;;4776335;29;19929;-73
2022/11/16 15:52:03;;;;;;;;;;;;;;;;;;4778687;29;19929;-73
2022/11/16 15:55:06;;;;;;;;;;;;;;;;;;4776837;29;20028;-73
2022/11/16 15:57:25;;;;;;;;;;;;;;;;;;4772623;29;19929;-74
2022/11/16 15:59:54;;;;;;;;;;;;;;;;;;4778258;30;20033;-73
2022/11/16 16:02:26;;;;;;;;;;;;;;;;;;4776412;29;20468;-72
2022/11/16 16:04:53;;;;;;;;;;;;;;;;;;4760499;30;19930;-73
2022/11/16 16:07:46;;;;;;;;;;;;;;;;;;4775164;29;19936;-73
2022/11/16 16:10:16;;;;;;;;;;;;;;;;;;4778075;30;19976;-72
2022/11/16 16:12:48;;;;;;;;;;;;;;;;;;4779091;29;20016;-74
2022/11/16 16:15:39;;;;;;;;;;;;;;;;;;4781125;30;20007;-73
2022/11/16 16:18:12;;;;;;;;;;;;;;;;;;4776906;29;19930;-73
2022/11/16 16:20:46;;;;;;;;;;;;;;;;;;4779321;29;20425;-73
2022/11/16 16:23:23;;;;;;;;;;;;;;;;;;4780615;29;20379;-72
2022/11/16 16:26:41;;;;;;;;;;;;;;;;;;4775727;29;19929;-72
2022/11/16 16:29:08;;;;;;;;;;;;;;;;;;4780661;29;19932;-72
2022/11/16 16:31:59;;;;;;;;;;;;;;;;;;4760904;29;19925;-72
2022/11/16 16:34:27;;;;;;;;;;;;;;;;;;4761601;30;19926;-71
2022/11/16 16:36:56;;;;;;;;;;;;;;;;;;4777281;29;19956;-72
2022/11/16 16:39:24;;;;;;;;;;;;;;;;;;4779843;30;19929;-72
2022/11/16 16:41:51;;;;;;;;;;;;;;;;;;4778387;29;19969;-71
2022/11/16 16:44:19;;;;;;;;;;;;;;;;;;4780789;29;20306;-72
2022/11/16 16:46:47;;;;;;;;;;;;;;;;;;4780040;30;19935;-72
2022/11/16 16:49:15;;;;;;;;;;;;;;;;;;4779593;29;19929;-72
2022/11/16 16:51:43;;;;;;;;;;;;;;;;;;4781188;29;20461;-72
2022/11/16 16:54:13;;;;;;;;;;;;;;;;;;4764910;29;19979;-73
2022/11/16 16:56:41;;;;;;;;;;;;;;;;;;4764353;30;19929;-72
2022/11/16 16:59:14;;;;;;;;;;;;;;;;;;4779042;29;19933;-72
2022/11/16 17:01:41;;;;;;;;;;;;;;;;;;4751385;30;19932;-72
2022/11/16 17:04:33;;;;;;;;;;;;;;;;;;4775313;29;19921;-72
2022/11/16 17:07:01;;;;;;;;;;;;;;;;;;4765859;30;19925;-72
2022/11/16 17:09:29;;;;;;;;;;;;;;;;;;4764539;30;19933;-72
2022/11/16 17:11:57;;;;;;;;;;;;;;;;;;4780331;30;19936;-72
2022/11/16 17:14:29;;;;;;;;;;;;;;;;;;4778645;29;19934;-72
2022/11/16 17:17:02;;;;;;;;;;;;;;;;;;4779141;30;20068;-72
2022/11/16 17:19:30;;;;;;;;;;;;;;;;;;4777450;29;19936;-72
2022/11/16 17:22:01;;;;;;;;;;;;;;;;;;4781623;30;19925;-72
2022/11/16 17:24:29;;;;;;;;;;;;;;;;;;4761887;30;19929;-72
2022/11/16 17:26:57;;;;;;;;;;;;;;;;;;4780283;29;19930;-72
2022/11/16 17:29:25;;;;;;;;;;;;;;;;;;4777615;29;19936;-72
2022/11/16 17:32:19;;;;;;;;;;;;;;;;;;4763084;30;20413;-72
2022/11/16 17:34:45;;;;;;;;;;;;;;;;;;4778939;29;19929;-72
2022/11/16 17:37:13;;;;;;;;;;;;;;;;;;4777118;30;20444;-72
2022/11/16 17:39:45;;;;;;;;;;;;;;;;;;4776825;29;19937;-72
2022/11/16 17:42:13;;;;;;;;;;;;;;;;;;4780198;30;19929;-72
2022/11/16 17:44:41;;;;;;;;;;;;;;;;;;4776485;29;20382;-73
2022/11/16 17:47:13;;;;;;;;;;;;;;;;;;4781578;30;20024;-72
2022/11/16 17:49:41;;;;;;;;;;;;;;;;;;4778227;29;19929;-72
2022/11/16 17:52:13;;;;;;;;;;;;;;;;;;4780117;30;20860;-72
2022/11/16 17:54:45;;;;;;;;;;;;;;;;;;4780695;29;19971;-72
2022/11/16 17:57:14;;;;;;;;;;;;;;;;;;4780069;30;19929;-73
2022/11/16 17:59:41;;;;;;;;;;;;;;;;;;4758696;29;20325;-73
2022/11/16 18:02:10;;;;;;;;;;;;;;;;;;4753481;30;19940;-72
2022/11/16 18:04:37;;;;;;;;;;;;;;;;;;4774431;29;19932;-73
2022/11/16 18:07:05;;;;;;;;;;;;;;;;;;4780354;30;20438;-73
2022/11/16 18:09:33;;;;;;;;;;;;;;;;;;4776613;29;19930;-77
2022/11/16 18:12:01;;;;;;;;;;;;;;;;;;4751969;30;19940;-73
2022/11/16 18:14:33;;;;;;;;;;;;;;;;;;4779916;29;20493;-73
2022/11/16 18:17:01;;;;;;;;;;;;;;;;;;4777594;29;19925;-73
2022/11/16 18:19:33;;;;;;;;;;;;;;;;;;4779300;29;20011;-73
2022/11/16 18:22:01;;;;;;;;;;;;;;;;;;4771630;30;20376;-73
2022/11/16 18:24:29;;;;;;;;;;;;;;;;;;4778474;29;19929;-73
2022/11/16 18:27:21;;;;;;;;;;;;;;;;;;4779581;30;20413;-73
2022/11/16 18:30:14;;;;;;;;;;;;;;;;;;4777058;29;19930;-73
2022/11/16 18:32:41;;;;;;;;;;;;;;;;;;4778133;29;19929;-73
2022/11/16 18:35:09;;;;;;;;;;;;;;;;;;4779759;29;19929;-72
2022/11/16 18:37:38;;;;;;;;;;;;;;;;;;4780629;30;19932;-72
2022/11/16 18:40:10;;;;;;;;;;;;;;;;;;4764971;30;19934;-72
2022/11/16 18:42:38;;;;;;;;;;;;;;;;;;4779959;30;19929;-72
2022/11/16 18:45:11;;;;;;;;;;;;;;;;;;4762507;30;20299;-72
2022/11/16 18:47:39;;;;;;;;;;;;;;;;;;4771107;29;20020;-73
2022/11/16 18:50:10;;;;;;;;;;;;;;;;;;4776777;29;19925;-72
2022/11/16 18:52:46;;;;;;;;;;;;;;;;;;4777124;29;19934;-73
2022/11/16 18:55:17;;;;;;;;;;;;;;;;;;4778450;29;20914;-72
2022/11/16 18:57:45;;;;;;;;;;;;;;;;;;4762106;30;20016;-73
2022/11/16 19:00:14;;;;;;;;;;;;;;;;;;4779415;29;19929;-73
2022/11/16 19:02:41;;;;;;;;;;;;;;;;;;4759201;30;20018;-73
2022/11/16 19:05:09;;;;;;;;;;;;;;;;;;4778206;29;19955;-72
2022/11/16 19:07:37;;;;;;;;;;;;;;;;;;4776057;30;20011;-72
2022/11/16 19:10:06;;;;;;;;;;;;;;;;;;4777285;29;19936;-72
2022/11/16 19:12:33;;;;;;;;;;;;;;;;;;4777707;29;19929;-73
2022/11/16 19:15:02;;;;;;;;;;;;;;;;;;4781287;29;19925;-72
2022/11/16 19:17:29;;;;;;;;;;;;;;;;;;4777714;30;19933;-73
2022/11/16 19:19:57;;;;;;;;;;;;;;;;;;4780152;29;20409;-71
2022/11/16 19:22:25;;;;;;;;;;;;;;;;;;4782819;30;19936;-71
2022/11/16 19:24:53;;;;;;;;;;;;;;;;;;4781428;29;19964;-71
2022/11/16 19:27:21;;;;;;;;;;;;;;;;;;4784370;30;20016;-71
2022/11/16 19:29:49;;;;;;;;;;;;;;;;;;4780285;29;19956;-72
2022/11/16 19:32:22;;;;;;;;;;;;;;;;;;4768184;30;19929;-71
2022/11/16 19:34:49;;;;;;;;;;;;;;;;;;4783944;29;19934;-71
2022/11/16 19:37:42;;;;;;;;;;;;;;;;;;4784200;30;20022;-71
2022/11/16 19:40:10;;;;;;;;;;;;;;;;;;4781714;29;19929;-71
2022/11/16 19:43:03;;;;;;;;;;;;;;;;;;4782378;30;19926;-71
2022/11/16 19:45:31;;;;;;;;;;;;;;;;;;4781231;29;19965;-71
2022/11/16 19:48:00;;;;;;;;;;;;;;;;;;4781806;30;20052;-72
2022/11/16 19:50:27;;;;;;;;;;;;;;;;;;4784332;29;20505;-71
2022/11/16 19:52:55;;;;;;;;;;;;;;;;;;4781689;30;19965;-72
2022/11/16 19:55:23;;;;;;;;;;;;;;;;;;4782316;29;19935;-72
2022/11/16 19:58:15;;;;;;;;;;;;;;;;;;4784114;30;19929;-72
2022/11/16 20:00:43;;;;;;;;;;;;;;;;;;4780685;29;19930;-72
2022/11/16 20:03:15;;;;;;;;;;;;;;;;;;4781355;29;20463;-72
2022/11/16 20:05:44;;;;;;;;;;;;;;;;;;4781852;29;19936;-72
2022/11/16 20:08:15;;;;;;;;;;;;;;;;;;4782846;29;19933;-72
2022/11/16 20:10:43;;;;;;;;;;;;;;;;;;4768006;30;20696;-72
2022/11/16 20:13:11;;;;;;;;;;;;;;;;;;4782785;30;19964;-72
2022/11/16 20:16:04;;;;;;;;;;;;;;;;;;4781883;30;20689;-71
2022/11/16 20:18:32;;;;;;;;;;;;;;;;;;4780695;29;19925;-72
2022/11/16 20:21:04;;;;;;;;;;;;;;;;;;4783337;30;19936;-71
2022/11/16 20:23:36;;;;;;;;;;;;;;;;;;4764385;29;20417;-72
2022/11/16 20:26:12;;;;;;;;;;;;;;;;;;4781528;29;19941;-72
2022/11/16 20:28:40;;;;;;;;;;;;;;;;;;4781465;29;19939;-72
2022/11/16 20:31:33;;;;;;;;;;;;;;;;;;4782060;29;20578;-72
2022/11/16 20:34:03;;;;;;;;;;;;;;;;;;4781384;29;19974;-71
2022/11/16 20:36:35;;;;;;;;;;;;;;;;;;4776558;29;19929;-72
2022/11/16 20:39:03;;;;;;;;;;;;;;;;;;4777940;29;20010;-72
2022/11/16 20:41:32;;;;;;;;;;;;;;;;;;4770269;30;19929;-72
2022/11/16 20:44:01;;;;;;;;;;;;;;;;;;4767098;29;20279;-72
2022/11/16 20:46:29;;;;;;;;;;;;;;;;;;4779184;30;19937;-71
2022/11/16 20:49:21;;;;;;;;;;;;;;;;;;4773752;30;19933;-72
2022/11/16 20:52:13;;;;;;;;;;;;;;;;;;4780097;29;19925;-72
2022/11/16 20:54:41;;;;;;;;;;;;;;;;;;4780062;29;19932;-72
2022/11/16 20:57:09;;;;;;;;;;;;;;;;;;4781061;30;20215;-72
2022/11/16 20:59:37;;;;;;;;;;;;;;;;;;4780537;29;19933;-72
2022/11/16 21:02:05;;;;;;;;;;;;;;;;;;4779351;30;20016;-72
2022/11/16 21:04:33;;;;;;;;;;;;;;;;;;4764390;30;19936;-72
2022/11/16 21:07:02;;;;;;;;;;;;;;;;;;4780155;29;20440;-71
2022/11/16 21:10:18;;;;;;;;;;;;;;;;;;4780223;29;19944;-72
2022/11/16 21:15:37;;;;;;;;;;;;;;;;;;4761371;30;19925;-72
2022/11/16 21:18:06;;;;;;;;;;;;;;;;;;4772414;29;19930;-72
2022/11/16 21:20:37;;;;;;;;;;;;;;;;;;4775100;29;19975;-72
2022/11/16 21:23:09;;;;;;;;;;;;;;;;;;4772845;29;19929;-72
2022/11/16 21:25:41;;;;;;;;;;;;;;;;;;4776355;29;19925;-71
2022/11/16 21:28:09;;;;;;;;;;;;;;;;;;4775776;30;19929;-73
2022/11/16 21:30:37;;;;;;;;;;;;;;;;;;4761521;30;19947;-72
2022/11/16 21:33:05;;;;;;;;;;;;;;;;;;4771655;29;19933;-72
2022/11/16 21:35:33;;;;;;;;;;;;;;;;;;4761301;30;19933;-72
2022/11/16 21:38:01;;;;;;;;;;;;;;;;;;4775043;29;20015;-72
2022/11/16 21:40:29;;;;;;;;;;;;;;;;;;4775424;29;19925;-72
2022/11/16 21:42:57;;;;;;;;;;;;;;;;;;4777726;29;19929;-73
2022/11/16 21:45:25;;;;;;;;;;;;;;;;;;4772456;29;20280;-72
2022/11/16 21:47:57;;;;;;;;;;;;;;;;;;4773690;29;19936;-72
2022/11/16 21:50:30;;;;;;;;;;;;;;;;;;4776293;29;19929;-72
2022/11/16 21:53:04;;;;;;;;;;;;;;;;;;4762978;30;19929;-73
2022/11/16 21:55:56;;;;;;;;;;;;;;;;;;4762524;29;19922;-72
2022/11/16 21:58:27;;;;;;;;;;;;;;;;;;4774022;29;19925;-72
2022/11/16 22:00:56;;;;;;;;;;;;;;;;;;4759717;30;20292;-73
2022/11/16 22:03:30;;;;;;;;;;;;;;;;;;4775293;29;20473;-82
2022/11/16 22:08:44;;;;;;;;;;;;;;;;;;4763768;30;19937;-84
2022/11/16 22:11:16;;;;;;;;;;;;;;;;;;4777750;29;20032;-83
2022/11/16 22:13:43;;;;;;;;;;;;;;;;;;4777477;29;19942;-80
2022/11/16 22:16:13;;;;;;;;;;;;;;;;;;4773017;29;19925;-80
2022/11/16 22:18:42;;;;;;;;;;;;;;;;;;4774966;30;20398;-80
2022/11/16 22:21:10;;;;;;;;;;;;;;;;;;4776989;29;19964;-80
2022/11/16 22:23:37;;;;;;;;;;;;;;;;;;4775565;29;20031;-80
2022/11/16 22:26:06;;;;;;;;;;;;;;;;;;4763456;30;19961;-80
2022/11/16 22:28:39;;;;;;;;;;;;;;;;;;4760421;30;19925;-79
2022/11/16 22:31:11;;;;;;;;;;;;;;;;;;4774920;29;20323;-81
2022/11/16 22:34:05;;;;;;;;;;;;;;;;;;4758360;29;19930;-80
2022/11/16 22:36:33;;;;;;;;;;;;;;;;;;4775469;29;19930;-80
2022/11/16 22:39:01;;;;;;;;;;;;;;;;;;4778757;29;19975;-80
2022/11/16 22:41:29;;;;;;;;;;;;;;;;;;4775692;29;20326;-80
2022/11/16 22:44:02;;;;;;;;;;;;;;;;;;4760152;30;19925;-80
2022/11/16 22:46:53;;;;;;;;;;;;;;;;;;4775474;29;20831;-80
2022/11/16 22:49:49;;;;;;;;;;;;;;;;;;4777027;29;19964;-81
2022/11/16 22:53:05;;;;;;;;;;;;;;;;;;4775913;29;19921;-79
2022/11/16 22:55:38;;;;;;;;;;;;;;;;;;4777343;29;20751;-79
2022/11/16 22:58:05;;;;;;;;;;;;;;;;;;4777066;29;19929;-80
2022/11/16 23:00:33;;;;;;;;;;;;;;;;;;4777789;29;19930;-80
2022/11/16 23:03:26;;;;;;;;;;;;;;;;;;4779624;29;20501;-80
2022/11/16 23:06:00;;;;;;;;;;;;;;;;;;4777723;29;20387;-79
2022/11/16 23:08:32;;;;;;;;;;;;;;;;;;4764822;30;20028;-81
2022/11/16 23:16:34;;;;;;;;;;;;;;;;;;4761297;30;19972;-81
2022/11/16 23:27:28;;;;;;;;;;;;;;;;;;4780264;30;19929;-80
2022/11/16 23:28:21;;;;;;;;;;;;;;;;;;4764457;30;19936;-80
2022/11/16 23:30:49;;;;;;;;;;;;;;;;;;4761828;30;19935;-81
2022/11/16 23:33:42;;;;;;;;;;;;;;;;;;4777694;29;19937;-80
2022/11/16 23:36:06;;;;;;;;;;;;;;;;;;4778615;29;19929;-81
2022/11/16 23:38:57;;;;;;;;;;;;;;;;;;4775730;29;20027;-80
2022/11/16 23:44:35;;;;;;;;;;;;;;;;;;4778816;30;19930;-80
2022/11/16 23:47:53;;;;;;;;;;;;;;;;;;4768148;29;19929;-80
2022/11/16 23:50:46;;;;;;;;;;;;;;;;;;4777778;29;20785;-80
2022/11/16 23:53:18;;;;;;;;;;;;;;;;;;4780027;29;20121;-82
2022/11/16 23:55:46;;;;;;;;;;;;;;;;;;4777960;29;20017;-79
2022/11/16 23:58:13;;;;;;;;;;;;;;;;;;4778830;30;19933;-80
